Time,TemperatureF,DewpointF,PressureIn,WindDirection,WindDirectionDegrees,WindSpeedMPH,WindSpeedGustMPH,Humidity,HourlyPrecipIn,Conditions,Clouds,dailyrainin,SoftwareType,DateUTC
2014-09-18 00:00:00,74.8,72.9,29.91,SW,232,0.0,0.0,94,-1.42,,,0.00,Weather View 32 v70,2014-09-18 04:00:00,
2014-09-18 00:05:00,74.7,72.8,29.91,SW,232,0.0,0.0,94,-1.42,,,0.00,Weather View 32 v70,2014-09-18 04:05:00,
2014-09-18 00:10:00,74.6,72.8,29.91,SW,232,0.0,0.0,94,-1.42,,,0.00,Weather View 32 v70,2014-09-18 04:10:00,
2014-09-18 00:15:00,74.5,72.7,29.91,SW,232,0.0,0.0,94,-1.42,,,0.00,Weather View 32 v70,2014-09-18 04:15:00,
2014-09-18 00:20:00,74.5,72.7,29.91,SW,232,0.0,0.0,94,-1.42,,,0.00,Weather View 32 v70,2014-09-18 04:20:00,
2014-09-18 00:25:00,74.4,72.6,29.91,SW,232,0.0,0.0,94,-1.42,,,0.00,Weather View 32 v70,2014-09-18 04:25:00,
2014-09-18 00:30:00,74.3,72.8,29.91,SW,232,0.0,0.0,95,-1.42,,,0.00,Weather View 32 v70,2014-09-18 04:30:00,
2014-09-18 00:35:00,74.3,72.8,29.90,SW,232,0.0,0.0,95,-1.42,,,0.00,Weather View 32 v70,2014-09-18 04:35:00,
2014-09-18 00:40:00,74.4,72.9,29.90,SW,232,0.0,0.0,95,-1.42,,,0.00,Weather View 32 v70,2014-09-18 04:40:00,
2014-09-18 00:45:00,74.3,72.8,29.90,SW,232,0.0,0.0,95,-1.42,,,0.00,Weather View 32 v70,2014-09-18 04:45:00,
2014-09-18 00:50:00,74.3,72.8,29.90,SW,232,0.0,0.0,95,-1.42,,,0.00,Weather View 32 v70,2014-09-18 04:50:00,
2014-09-18 00:55:00,74.2,72.7,29.90,SW,232,0.0,0.0,95,-1.42,,,0.00,Weather View 32 v70,2014-09-18 04:55:00,
2014-09-18 00:58:00,74.2,72.7,29.89,SW,232,0.0,0.0,95,-1.42,,,0.00,Weather View 32 v70,2014-09-18 04:58:00,
2014-09-18 01:00:00,74.2,72.7,29.89,SW,232,0.0,0.0,95,0.00,,,0.00,Weather View 32 v70,2014-09-18 05:00:00,
2014-09-18 01:03:00,74.1,72.6,29.89,SW,232,0.0,0.0,95,0.00,,,0.00,Weather View 32 v70,2014-09-18 05:03:00,
2014-09-18 01:08:00,74.1,72.6,29.89,SW,232,0.0,0.0,95,0.00,,,0.00,Weather View 32 v70,2014-09-18 05:08:00,
2014-09-18 01:13:00,74.0,72.5,29.89,SW,232,0.0,0.0,95,0.00,,,0.00,Weather View 32 v70,2014-09-18 05:13:00,
2014-09-18 01:18:00,74.0,72.5,29.89,SW,232,0.0,0.0,95,0.00,,,0.00,Weather View 32 v70,2014-09-18 05:18:00,
2014-09-18 01:23:00,73.9,72.4,29.89,SW,232,0.0,0.0,95,0.00,,,0.00,Weather View 32 v70,2014-09-18 05:23:00,
2014-09-18 01:28:00,73.9,72.4,29.89,SW,232,0.0,0.0,95,0.00,,,0.00,Weather View 32 v70,2014-09-18 05:28:00,
2014-09-18 01:33:00,73.8,72.3,29.89,SW,232,0.0,0.0,95,0.00,,,0.00,Weather View 32 v70,2014-09-18 05:33:00,
2014-09-18 01:38:00,73.8,72.3,29.88,SW,232,0.0,0.0,95,0.00,,,0.00,Weather View 32 v70,2014-09-18 05:38:00,
2014-09-18 01:43:00,73.7,72.2,29.88,SW,232,0.0,0.0,95,0.00,,,0.00,Weather View 32 v70,2014-09-18 05:43:00,
2014-09-18 01:48:00,73.7,72.2,29.88,SW,232,0.0,0.0,95,0.00,,,0.00,Weather View 32 v70,2014-09-18 05:48:00,
2014-09-18 01:53:00,73.6,72.1,29.88,SW,232,0.0,0.0,95,0.00,,,0.00,Weather View 32 v70,2014-09-18 05:53:00,
2014-09-18 01:58:00,73.5,72.0,29.88,SW,232,0.0,0.0,95,0.00,,,0.00,Weather View 32 v70,2014-09-18 05:58:00,
2014-09-18 02:00:00,73.5,72.0,29.88,SW,232,0.0,0.0,95,0.00,,,0.00,Weather View 32 v70,2014-09-18 06:00:00,
2014-09-18 02:07:00,73.4,71.9,29.88,SW,232,0.0,0.0,95,0.00,,,0.00,Weather View 32 v70,2014-09-18 06:07:00,
2014-09-18 02:26:00,73.0,71.5,29.87,SW,232,0.0,0.0,95,0.00,,,0.00,Weather View 32 v70,2014-09-18 06:26:00,
2014-09-18 02:31:00,73.0,71.5,29.87,SW,232,0.0,0.0,95,0.00,,,0.00,Weather View 32 v70,2014-09-18 06:31:00,
2014-09-18 02:36:00,73.0,71.5,29.87,SW,232,0.0,0.0,95,0.00,,,0.00,Weather View 32 v70,2014-09-18 06:36:00,
2014-09-18 02:41:00,72.8,71.3,29.87,SW,232,0.0,0.0,95,0.00,,,0.00,Weather View 32 v70,2014-09-18 06:41:00,
2014-09-18 02:46:00,72.8,71.3,29.87,SW,232,0.0,0.0,95,0.00,,,0.00,Weather View 32 v70,2014-09-18 06:46:00,
2014-09-18 02:51:00,72.8,71.3,29.87,SW,232,0.0,0.0,95,0.00,,,0.00,Weather View 32 v70,2014-09-18 06:51:00,
2014-09-18 02:56:00,72.8,71.3,29.87,SW,232,0.0,0.0,95,0.00,,,0.00,Weather View 32 v70,2014-09-18 06:56:00,
2014-09-18 03:00:00,72.7,71.2,29.87,SW,232,0.0,0.0,95,0.00,,,0.00,Weather View 32 v70,2014-09-18 07:00:00,
2014-09-18 03:01:00,72.7,71.2,29.87,SW,232,0.0,0.0,95,0.00,,,0.00,Weather View 32 v70,2014-09-18 07:01:00,
2014-09-18 03:06:00,72.6,71.1,29.87,SW,232,0.0,0.0,95,0.00,,,0.00,Weather View 32 v70,2014-09-18 07:06:00,
2014-09-18 03:11:00,72.6,71.1,29.87,SW,232,0.0,0.0,95,0.00,,,0.00,Weather View 32 v70,2014-09-18 07:11:00,
2014-09-18 03:16:00,72.4,70.9,29.87,SW,232,0.0,0.0,95,0.00,,,0.00,Weather View 32 v70,2014-09-18 07:16:00,
2014-09-18 03:21:00,72.3,70.8,29.86,SW,232,0.0,0.0,95,0.00,,,0.00,Weather View 32 v70,2014-09-18 07:21:00,
2014-09-18 03:26:00,72.2,70.7,29.87,SW,232,0.0,0.0,95,0.00,,,0.00,Weather View 32 v70,2014-09-18 07:26:00,
2014-09-18 03:31:00,72.1,70.6,29.87,SW,232,0.0,0.0,95,0.00,,,0.00,Weather View 32 v70,2014-09-18 07:31:00,
2014-09-18 03:36:00,72.1,70.6,29.86,SW,232,0.0,0.0,95,0.00,,,0.00,Weather View 32 v70,2014-09-18 07:36:00,
2014-09-18 03:41:00,72.1,70.6,29.86,SW,232,0.0,0.0,95,0.00,,,0.00,Weather View 32 v70,2014-09-18 07:41:00,
2014-09-18 03:46:00,72.1,70.6,29.86,SW,232,0.0,0.0,95,0.00,,,0.00,Weather View 32 v70,2014-09-18 07:46:00,
2014-09-18 03:48:00,72.1,70.6,29.86,SW,232,0.0,0.0,95,0.00,,,0.00,Weather View 32 v70,2014-09-18 07:48:00,
2014-09-18 03:53:00,72.1,70.6,29.86,SW,232,0.0,0.0,95,0.00,,,0.00,Weather View 32 v70,2014-09-18 07:53:00,
2014-09-18 03:58:00,71.9,70.4,29.86,SW,232,0.0,0.0,95,0.00,,,0.00,Weather View 32 v70,2014-09-18 07:58:00,
2014-09-18 04:00:00,71.9,70.4,29.86,SW,232,0.0,0.0,95,0.00,,,0.00,Weather View 32 v70,2014-09-18 08:00:00,
2014-09-18 04:03:00,71.9,70.4,29.86,SW,232,0.0,0.0,95,0.00,,,0.00,Weather View 32 v70,2014-09-18 08:03:00,
2014-09-18 04:08:00,71.9,70.4,29.86,SW,232,0.0,0.0,95,0.00,,,0.00,Weather View 32 v70,2014-09-18 08:08:00,
2014-09-18 04:13:00,71.8,70.3,29.86,SW,232,0.0,0.0,95,0.00,,,0.00,Weather View 32 v70,2014-09-18 08:13:00,
2014-09-18 04:18:00,71.7,70.2,29.85,SW,232,0.0,0.0,95,0.00,,,0.00,Weather View 32 v70,2014-09-18 08:18:00,
2014-09-18 04:23:00,71.8,70.3,29.85,SW,232,0.0,0.0,95,0.00,,,0.00,Weather View 32 v70,2014-09-18 08:23:00,
2014-09-18 04:28:00,71.8,70.3,29.85,SW,232,0.0,0.0,95,0.00,,,0.00,Weather View 32 v70,2014-09-18 08:28:00,
2014-09-18 04:33:00,71.8,70.3,29.85,SW,232,0.0,0.0,95,0.00,,,0.00,Weather View 32 v70,2014-09-18 08:33:00,